Terminal Aerodrome Forecast
Issued by NWS Austin/San Antonio, TX

Current Version | Previous Version | Text Only | Print | Product List | Glossary Off
Versions: 1 2 3 4 5 6 7 8 9 10 11 12 13 14 15 16 17

434
FTUS44 KEWX 270102 AAA
TAFSAT
TAF AMD
KSAT 270102Z 2701/2806 13007KT P6SM BKN250
     FM270900 VRB03KT P6SM BKN050
     FM271500 03007KT P6SM SCT050
     FM280000 12003KT P6SM SCT050=

USA.gov is the U.S. government's official web portal to all federal, state and local government web resources and services.